Time;durP1;ratioP1;P1;durP2;ratioP2;P2;SDS_P1;SDS_P2;PMS_P1;PMS_P2;Temp;Humidity;BMP_temperature;BMP_pressure;BME280_temperature;BME280_humidity;BME280_pressure;Samples;Min_cycle;Max_cycle;Signal;HPM_P1;HPM_P2
2021/08/19 00:02:04;;;;;;;8.10;2.85;;;;;;;;;;4994788;28;20056;-70
2021/08/19 00:04:32;;;;;;;6.20;2.72;;;;;;;;;;5013212;28;20544;-70
2021/08/19 00:07:01;;;;;;;5.43;2.90;;;;;;;;;;5012873;28;20070;-69
2021/08/19 00:09:30;;;;;;;5.60;2.42;;;;;;;;;;5012739;28;20054;-70
2021/08/19 00:11:58;;;;;;;10.98;2.95;;;;;;;;;;5013133;28;20049;-69
2021/08/19 00:14:27;;;;;;;6.32;2.53;;;;;;;;;;5012154;28;20129;-69
2021/08/19 00:16:55;;;;;;;5.70;2.30;;;;;;;;;;5012210;28;20484;-69
2021/08/19 00:19:23;;;;;;;3.85;2.47;;;;;;;;;;5012806;28;20050;-69
2021/08/19 00:21:51;;;;;;;7.78;2.75;;;;;;;;;;5012629;28;20310;-70
2021/08/19 00:24:19;;;;;;;6.10;2.30;;;;;;;;;;5011806;28;20045;-70
2021/08/19 00:26:49;;;;;;;4.80;2.30;;;;;;;;;;5012657;28;20065;-69
2021/08/19 00:29:17;;;;;;;3.97;2.40;;;;;;;;;;5012762;28;20401;-69
2021/08/19 00:31:45;;;;;;;7.20;2.42;;;;;;;;;;5012727;28;20056;-69
2021/08/19 00:34:14;;;;;;;5.43;2.30;;;;;;;;;;5011699;28;20042;-69
2021/08/19 00:36:42;;;;;;;5.38;2.63;;;;;;;;;;5012399;28;20050;-69
2021/08/19 00:39:10;;;;;;;3.50;1.98;;;;;;;;;;5011833;28;20413;-69
2021/08/19 00:41:38;;;;;;;4.18;2.28;;;;;;;;;;5012440;28;20413;-70
2021/08/19 00:44:08;;;;;;;6.53;2.58;;;;;;;;;;5011669;28;20064;-69
2021/08/19 00:46:37;;;;;;;5.18;2.53;;;;;;;;;;5012416;28;20057;-69
2021/08/19 00:49:06;;;;;;;6.68;2.42;;;;;;;;;;5011883;28;20136;-69
2021/08/19 00:51:36;;;;;;;8.77;2.35;;;;;;;;;;5011857;28;20048;-69
2021/08/19 00:54:05;;;;;;;4.28;2.05;;;;;;;;;;5011423;28;20046;-70
2021/08/19 00:56:33;;;;;;;4.32;2.40;;;;;;;;;;5003278;28;20471;-69
2021/08/19 00:59:02;;;;;;;3.53;2.17;;;;;;;;;;5004028;28;20061;-69
2021/08/19 01:04:11;;;;;;;4.28;2.40;;;;;;;;;;4951110;29;20134;-66
2021/08/19 01:06:40;;;;;;;3.13;1.83;;;;;;;;;;4953122;28;20496;-69
2021/08/19 01:09:09;;;;;;;4.10;2.30;;;;;;;;;;4960035;28;20077;-67
2021/08/19 01:11:40;;;;;;;6.20;2.58;;;;;;;;;;4972841;28;20050;-66
2021/08/19 01:14:08;;;;;;;4.18;2.45;;;;;;;;;;4972047;28;20042;-67
2021/08/19 01:16:38;;;;;;;4.28;2.15;;;;;;;;;;4958756;28;20061;-66
2021/08/19 01:19:06;;;;;;;4.30;2.25;;;;;;;;;;4953514;29;20059;-68
2021/08/19 01:21:34;;;;;;;4.93;1.98;;;;;;;;;;4953626;29;20082;-66
2021/08/19 01:24:03;;;;;;;6.60;2.28;;;;;;;;;;4952482;29;20051;-69
2021/08/19 01:26:32;;;;;;;4.10;2.05;;;;;;;;;;4953567;29;20050;-66
2021/08/19 01:29:04;;;;;;;4.93;2.00;;;;;;;;;;4952765;29;20510;-67
2021/08/19 01:31:33;;;;;;;6.07;1.92;;;;;;;;;;4953600;29;20047;-69
2021/08/19 01:34:02;;;;;;;9.93;2.15;;;;;;;;;;4952770;29;20050;-66
2021/08/19 01:36:30;;;;;;;5.18;2.50;;;;;;;;;;4953452;29;20051;-67
2021/08/19 01:38:58;;;;;;;3.45;2.15;;;;;;;;;;4953006;29;20051;-67
2021/08/19 01:41:26;;;;;;;4.18;2.17;;;;;;;;;;4953479;29;20138;-66
2021/08/19 01:43:55;;;;;;;4.20;2.25;;;;;;;;;;4952934;28;20070;-69
2021/08/19 01:46:24;;;;;;;4.88;2.47;;;;;;;;;;4953352;28;20055;-66
2021/08/19 01:48:53;;;;;;;5.60;2.30;;;;;;;;;;4953479;28;20055;-67
2021/08/19 01:51:21;;;;;;;3.30;1.90;;;;;;;;;;4952709;29;20055;-68
2021/08/19 01:53:50;;;;;;;4.60;2.22;;;;;;;;;;4952436;29;20044;-68
2021/08/19 01:56:19;;;;;;;5.45;2.35;;;;;;;;;;4952842;28;20050;-68
2021/08/19 01:58:47;;;;;;;5.38;1.88;;;;;;;;;;4959815;28;20050;-69
2021/08/19 02:01:18;;;;;;;5.90;2.47;;;;;;;;;;4971910;28;20427;-67
2021/08/19 02:03:48;;;;;;;4.03;2.10;;;;;;;;;;4956830;28;20083;-69
2021/08/19 02:06:16;;;;;;;7.13;2.85;;;;;;;;;;4952732;28;20047;-67
2021/08/19 02:08:45;;;;;;;3.75;2.28;;;;;;;;;;4953098;29;20067;-67
2021/08/19 02:11:13;;;;;;;6.05;2.58;;;;;;;;;;4952650;28;20055;-67
2021/08/19 02:13:42;;;;;;;7.07;2.67;;;;;;;;;;4952934;28;20061;-67
2021/08/19 02:16:10;;;;;;;6.35;2.83;;;;;;;;;;4952821;28;20051;-67
2021/08/19 02:18:39;;;;;;;5.20;2.25;;;;;;;;;;4953445;28;20158;-66
2021/08/19 02:21:08;;;;;;;3.42;2.03;;;;;;;;;;4956691;28;20047;-67
2021/08/19 02:23:36;;;;;;;5.35;2.10;;;;;;;;;;4955952;28;20502;-66
2021/08/19 02:26:05;;;;;;;6.05;2.83;;;;;;;;;;4956601;29;20077;-66
2021/08/19 02:28:33;;;;;;;3.92;2.00;;;;;;;;;;4956886;29;20057;-70
2021/08/19 02:31:01;;;;;;;4.78;2.60;;;;;;;;;;4956747;29;20055;-69
2021/08/19 02:33:29;;;;;;;8.57;2.53;;;;;;;;;;4956081;29;20051;-66
2021/08/19 02:35:58;;;;;;;4.40;2.30;;;;;;;;;;4956819;29;20127;-66
2021/08/19 02:38:28;;;;;;;3.85;1.92;;;;;;;;;;4956775;29;20403;-66
2021/08/19 02:40:56;;;;;;;3.72;2.03;;;;;;;;;;4955944;29;20061;-66
2021/08/19 02:43:24;;;;;;;7.35;2.28;;;;;;;;;;4956108;29;20532;-66
2021/08/19 02:45:52;;;;;;;5.63;2.28;;;;;;;;;;4955949;29;20043;-67
2021/08/19 02:48:21;;;;;;;6.00;2.70;;;;;;;;;;4961919;28;20042;-67
2021/08/19 02:50:49;;;;;;;5.47;2.40;;;;;;;;;;4976116;28;20047;-66
2021/08/19 02:53:17;;;;;;;6.28;2.42;;;;;;;;;;4975408;28;20384;-66
2021/08/19 02:55:47;;;;;;;6.70;2.30;;;;;;;;;;4973012;28;20125;-67
2021/08/19 02:58:15;;;;;;;4.50;2.13;;;;;;;;;;4955915;29;20058;-67
2021/08/19 03:00:43;;;;;;;8.18;2.58;;;;;;;;;;4956046;29;20051;-67
2021/08/19 03:03:12;;;;;;;8.00;2.42;;;;;;;;;;4956236;29;20155;-70
2021/08/19 03:05:40;;;;;;;4.70;2.50;;;;;;;;;;4955652;28;20056;-67
2021/08/19 03:08:08;;;;;;;7.85;2.70;;;;;;;;;;4955544;28;20051;-68
2021/08/19 03:10:37;;;;;;;3.63;1.83;;;;;;;;;;4955865;28;20407;-67
2021/08/19 03:13:06;;;;;;;5.65;2.30;;;;;;;;;;4955272;29;20047;-67
2021/08/19 03:15:34;;;;;;;4.50;2.20;;;;;;;;;;4955056;29;20051;-66
2021/08/19 03:18:03;;;;;;;4.22;1.98;;;;;;;;;;4956262;29;20090;-68
2021/08/19 03:20:31;;;;;;;6.72;2.70;;;;;;;;;;4955866;29;20050;-66
2021/08/19 03:23:00;;;;;;;8.00;2.53;;;;;;;;;;4956244;29;20889;-67
2021/08/19 03:25:28;;;;;;;7.57;2.72;;;;;;;;;;4955751;29;20047;-69
2021/08/19 03:28:01;;;;;;;11.35;2.75;;;;;;;;;;4544215;28;10000636;-67
2021/08/19 03:30:30;;;;;;;5.20;2.50;;;;;;;;;;681802;29;10002014;-66
2021/08/19 03:32:59;;;;;;;5.07;2.70;;;;;;;;;;4955827;29;20051;-67
2021/08/19 03:35:27;;;;;;;5.47;2.22;;;;;;;;;;4954967;29;20509;-66
2021/08/19 03:37:55;;;;;;;5.20;2.47;;;;;;;;;;4961245;28;20073;-66
2021/08/19 03:40:23;;;;;;;5.93;2.72;;;;;;;;;;4974791;28;20050;-70
2021/08/19 03:42:51;;;;;;;6.07;2.47;;;;;;;;;;4974769;28;20047;-68
2021/08/19 03:45:20;;;;;;;4.97;2.35;;;;;;;;;;4974088;28;20129;-66
2021/08/19 03:47:50;;;;;;;5.63;2.03;;;;;;;;;;4974764;28;20060;-65
2021/08/19 03:50:18;;;;;;;5.65;2.33;;;;;;;;;;4955024;29;20414;-66
2021/08/19 03:52:46;;;;;;;4.22;2.13;;;;;;;;;;4955196;29;20047;-65
2021/08/19 03:55:15;;;;;;;4.15;2.20;;;;;;;;;;4954904;29;20047;-65
2021/08/19 03:57:43;;;;;;;8.02;2.53;;;;;;;;;;4954754;28;20065;-67
2021/08/19 04:00:12;;;;;;;4.75;2.17;;;;;;;;;;4954792;29;20055;-66
2021/08/19 04:02:40;;;;;;;5.40;2.42;;;;;;;;;;4955045;29;20055;-66
2021/08/19 04:05:10;;;;;;;3.70;2.15;;;;;;;;;;4953915;28;20051;-67
2021/08/19 04:07:40;;;;;;;5.93;2.10;;;;;;;;;;4955111;29;20051;-68
2021/08/19 04:10:09;;;;;;;4.75;2.20;;;;;;;;;;4969354;28;20091;-66
2021/08/19 04:12:37;;;;;;;5.15;2.28;;;;;;;;;;4974264;28;20101;-66
2021/08/19 04:15:06;;;;;;;5.57;2.90;;;;;;;;;;4973852;28;20046;-67
2021/08/19 04:17:34;;;;;;;5.10;2.42;;;;;;;;;;4974091;28;20402;-66
2021/08/19 04:20:03;;;;;;;5.40;2.67;;;;;;;;;;4974352;28;20047;-68
2021/08/19 04:22:32;;;;;;;5.70;2.55;;;;;;;;;;4968799;28;20095;-67
2021/08/19 04:25:01;;;;;;;5.22;2.63;;;;;;;;;;4954299;29;20055;-67
2021/08/19 04:27:29;;;;;;;6.28;3.17;;;;;;;;;;4954773;29;20051;-66
2021/08/19 04:29:57;;;;;;;6.43;2.90;;;;;;;;;;4954520;29;20050;-66
2021/08/19 04:32:25;;;;;;;6.82;2.70;;;;;;;;;;4954645;29;20054;-67
2021/08/19 04:34:53;;;;;;;6.30;2.42;;;;;;;;;;4954508;29;20047;-67
2021/08/19 04:37:22;;;;;;;6.30;2.35;;;;;;;;;;4954366;29;20143;-68
2021/08/19 04:39:51;;;;;;;5.35;2.80;;;;;;;;;;4954241;29;20058;-67
2021/08/19 04:42:20;;;;;;;5.22;2.60;;;;;;;;;;4953668;28;20051;-68
2021/08/19 04:44:48;;;;;;;5.88;2.53;;;;;;;;;;4953480;29;20142;-69
2021/08/19 04:47:17;;;;;;;7.05;3.03;;;;;;;;;;4954062;29;20051;-67
2021/08/19 04:49:45;;;;;;;7.47;3.05;;;;;;;;;;4954664;29;20167;-66
2021/08/19 04:52:13;;;;;;;5.75;2.70;;;;;;;;;;4954480;29;20043;-67
2021/08/19 04:54:41;;;;;;;4.22;2.50;;;;;;;;;;4953372;29;20048;-67
2021/08/19 04:57:11;;;;;;;6.95;2.58;;;;;;;;;;4953820;28;20425;-67
2021/08/19 04:59:39;;;;;;;4.75;2.72;;;;;;;;;;4964958;28;20495;-67
2021/08/19 05:02:07;;;;;;;6.65;2.40;;;;;;;;;;4970565;28;20396;-67
2021/08/19 05:04:36;;;;;;;7.03;2.53;;;;;;;;;;4953606;28;20051;-66
2021/08/19 05:07:04;;;;;;;5.50;2.72;;;;;;;;;;4953076;28;20050;-68
2021/08/19 05:09:36;;;;;;;5.25;2.40;;;;;;;;;;4953819;29;20125;-67
2021/08/19 05:12:04;;;;;;;7.07;2.92;;;;;;;;;;4953579;28;20069;-67
2021/08/19 05:14:34;;;;;;;6.20;2.78;;;;;;;;;;4953055;28;20066;-68
2021/08/19 05:17:02;;;;;;;6.55;2.80;;;;;;;;;;4953756;29;20044;-68
2021/08/19 05:19:30;;;;;;;5.85;2.13;;;;;;;;;;4953896;29;20058;-67
2021/08/19 05:21:58;;;;;;;7.68;2.65;;;;;;;;;;4953040;29;20059;-68
2021/08/19 05:24:27;;;;;;;5.80;2.42;;;;;;;;;;4952968;28;20485;-66
2021/08/19 05:26:55;;;;;;;4.78;2.38;;;;;;;;;;4953525;29;20055;-66
2021/08/19 05:29:23;;;;;;;6.45;2.50;;;;;;;;;;4953531;29;20407;-68
2021/08/19 05:31:53;;;;;;;4.03;2.40;;;;;;;;;;4952620;29;20078;-67
2021/08/19 05:34:21;;;;;;;7.18;2.25;;;;;;;;;;4952939;29;20055;-67
2021/08/19 05:36:49;;;;;;;5.90;2.65;;;;;;;;;;4953418;29;20483;-68
2021/08/19 05:39:17;;;;;;;5.88;2.40;;;;;;;;;;4952950;29;20468;-65
2021/08/19 05:41:46;;;;;;;6.03;2.33;;;;;;;;;;4953495;29;20058;-68
2021/08/19 05:44:16;;;;;;;4.35;2.30;;;;;;;;;;4952546;29;20054;-66
2021/08/19 05:46:44;;;;;;;5.57;2.42;;;;;;;;;;4953644;29;20397;-67
2021/08/19 05:49:15;;;;;;;7.28;2.28;;;;;;;;;;4965597;28;20047;-66
2021/08/19 05:51:44;;;;;;;6.07;2.42;;;;;;;;;;4972149;28;20055;-67
2021/08/19 05:54:12;;;;;;;3.40;2.05;;;;;;;;;;4971543;28;20503;-66
2021/08/19 05:56:40;;;;;;;7.45;2.42;;;;;;;;;;4963321;28;20047;-66
2021/08/19 05:59:09;;;;;;;6.95;2.65;;;;;;;;;;4953118;29;20059;-68
2021/08/19 06:01:39;;;;;;;6.60;2.53;;;;;;;;;;4953216;29;20055;-66
2021/08/19 06:04:07;;;;;;;7.68;2.70;;;;;;;;;;4952093;28;20051;-66
2021/08/19 06:06:37;;;;;;;5.15;2.53;;;;;;;;;;4953217;29;20051;-67
2021/08/19 06:09:05;;;;;;;4.65;2.28;;;;;;;;;;4953052;29;20078;-66
2021/08/19 06:11:33;;;;;;;5.20;2.42;;;;;;;;;;4953211;28;22346;-69
2021/08/19 06:14:02;;;;;;;9.57;3.10;;;;;;;;;;4952509;28;20047;-68
2021/08/19 06:16:30;;;;;;;10.43;3.25;;;;;;;;;;4953021;28;20492;-67
2021/08/19 06:19:00;;;;;;;9.00;3.03;;;;;;;;;;4953051;29;20125;-67
2021/08/19 06:21:28;;;;;;;7.88;2.88;;;;;;;;;;4953117;28;20167;-67
2021/08/19 06:23:58;;;;;;;8.43;2.70;;;;;;;;;;4952124;29;20512;-69
2021/08/19 06:26:26;;;;;;;5.90;2.58;;;;;;;;;;4952950;29;20058;-67
2021/08/19 06:28:54;;;;;;;5.43;2.78;;;;;;;;;;4952705;29;20126;-67
2021/08/19 06:31:23;;;;;;;7.60;2.63;;;;;;;;;;4952674;29;20047;-66
2021/08/19 06:33:51;;;;;;;6.57;3.03;;;;;;;;;;4952262;29;20579;-66
2021/08/19 06:36:19;;;;;;;4.97;3.10;;;;;;;;;;4952524;29;20505;-66
2021/08/19 06:38:52;;;;;;;8.32;3.60;;;;;;;;;;4959166;28;20054;-67
2021/08/19 06:41:22;;;;;;;6.60;3.10;;;;;;;;;;4972063;28;20079;-67
2021/08/19 06:43:50;;;;;;;11.18;3.35;;;;;;;;;;4971522;28;20530;-66
2021/08/19 06:46:18;;;;;;;5.68;3.10;;;;;;;;;;4971877;28;20062;-68
2021/08/19 06:48:47;;;;;;;7.57;3.10;;;;;;;;;;4972084;28;20065;-68
2021/08/19 06:51:15;;;;;;;7.97;3.10;;;;;;;;;;4971533;28;20137;-66
2021/08/19 06:53:44;;;;;;;5.25;2.50;;;;;;;;;;4971298;28;20053;-66
2021/08/19 06:56:12;;;;;;;8.15;2.92;;;;;;;;;;4966612;28;20051;-68
2021/08/19 06:58:42;;;;;;;7.75;2.95;;;;;;;;;;4971749;28;20390;-67
2021/08/19 07:01:10;;;;;;;7.60;2.75;;;;;;;;;;4971749;28;20057;-66
2021/08/19 07:03:39;;;;;;;5.75;3.05;;;;;;;;;;4956915;28;20063;-68
2021/08/19 07:06:10;;;;;;;4.70;2.40;;;;;;;;;;4955123;28;20051;-67
2021/08/19 07:08:39;;;;;;;6.00;2.83;;;;;;;;;;4958652;28;20047;-67
2021/08/19 07:11:07;;;;;;;5.68;2.60;;;;;;;;;;4975041;28;20242;-66
2021/08/19 07:13:36;;;;;;;6.32;2.80;;;;;;;;;;4960837;28;20470;-68
2021/08/19 07:16:06;;;;;;;7.38;2.88;;;;;;;;;;4955384;29;20043;-68
2021/08/19 07:18:34;;;;;;;4.85;2.60;;;;;;;;;;4955697;29;20057;-67
2021/08/19 07:21:05;;;;;;;7.03;2.78;;;;;;;;;;4956227;29;20058;-67
2021/08/19 07:23:33;;;;;;;6.22;2.60;;;;;;;;;;4955543;29;20059;-69
2021/08/19 07:26:01;;;;;;;5.68;2.50;;;;;;;;;;4956062;29;20104;-68
2021/08/19 07:28:30;;;;;;;5.78;2.97;;;;;;;;;;4955866;29;20130;-67
2021/08/19 07:30:58;;;;;;;7.55;2.97;;;;;;;;;;4955922;29;20091;-69
2021/08/19 07:33:28;;;;;;;5.38;2.63;;;;;;;;;;4955318;29;20051;-66
2021/08/19 07:35:56;;;;;;;6.32;2.75;;;;;;;;;;4954881;29;20055;-67
2021/08/19 07:38:25;;;;;;;4.85;2.60;;;;;;;;;;4954789;29;20082;-66
2021/08/19 07:40:54;;;;;;;5.78;2.47;;;;;;;;;;4955195;29;20431;-66
2021/08/19 07:43:22;;;;;;;5.95;2.58;;;;;;;;;;4955322;29;20058;-67
2021/08/19 07:45:51;;;;;;;4.90;2.50;;;;;;;;;;4955229;29;20074;-66
2021/08/19 07:48:20;;;;;;;4.75;2.65;;;;;;;;;;4954763;29;20059;-67
2021/08/19 07:50:50;;;;;;;3.50;2.08;;;;;;;;;;4955083;29;20047;-69
2021/08/19 07:53:19;;;;;;;5.57;2.50;;;;;;;;;;4954514;29;20051;-66
2021/08/19 07:55:47;;;;;;;6.10;2.78;;;;;;;;;;4954641;28;20130;-67
2021/08/19 07:58:15;;;;;;;4.40;2.33;;;;;;;;;;4959871;28;20043;-66
2021/08/19 08:00:44;;;;;;;4.97;2.28;;;;;;;;;;4974430;28;20125;-66
2021/08/19 08:03:13;;;;;;;4.63;2.45;;;;;;;;;;4962343;28;20066;-66
2021/08/19 08:05:42;;;;;;;5.88;2.63;;;;;;;;;;4954561;29;20051;-69
2021/08/19 08:08:12;;;;;;;7.90;2.42;;;;;;;;;;4954600;29;20136;-66
2021/08/19 08:10:43;;;;;;;3.75;2.25;;;;;;;;;;4954965;29;20452;-66
2021/08/19 08:13:13;;;;;;;3.97;2.10;;;;;;;;;;4954464;28;20051;-66
2021/08/19 08:15:42;;;;;;;3.58;2.28;;;;;;;;;;4954066;28;20159;-67
2021/08/19 08:18:14;;;;;;;6.07;2.20;;;;;;;;;;4954182;28;20051;-66
2021/08/19 08:20:42;;;;;;;3.55;1.90;;;;;;;;;;4955002;28;20055;-66
2021/08/19 08:23:17;;;;;;;5.35;2.30;;;;;;;;;;4954662;29;20051;-66
2021/08/19 08:25:45;;;;;;;4.63;1.93;;;;;;;;;;4954057;29;20055;-66
2021/08/19 08:28:15;;;;;;;3.67;1.80;;;;;;;;;;4954714;29;20082;-65
2021/08/19 08:30:45;;;;;;;8.80;2.10;;;;;;;;;;4954672;29;20118;-66
2021/08/19 08:33:14;;;;;;;3.03;1.85;;;;;;;;;;4953998;29;20055;-66
2021/08/19 08:35:42;;;;;;;3.42;2.05;;;;;;;;;;4954048;29;20075;-66
2021/08/19 08:38:13;;;;;;;4.47;2.47;;;;;;;;;;4954367;29;20083;-67
2021/08/19 08:40:45;;;;;;;4.93;1.58;;;;;;;;;;4954444;29;20047;-69
2021/08/19 08:43:14;;;;;;;3.55;1.70;;;;;;;;;;4953868;29;20057;-67
2021/08/19 08:45:43;;;;;;;2.97;1.80;;;;;;;;;;4953650;29;20098;-65
2021/08/19 08:48:12;;;;;;;4.43;1.40;;;;;;;;;;4963341;28;20043;-67
2021/08/19 08:50:41;;;;;;;2.85;1.50;;;;;;;;;;4973089;28;20121;-69
2021/08/19 08:53:10;;;;;;;3.10;1.50;;;;;;;;;;4973236;28;20066;-69
2021/08/19 08:55:38;;;;;;;2.28;1.25;;;;;;;;;;4958031;28;20051;-68
2021/08/19 08:58:08;;;;;;;6.13;1.20;;;;;;;;;;4954035;29;20047;-67
2021/08/19 09:00:37;;;;;;;5.35;1.77;;;;;;;;;;4953956;29;20055;-67
2021/08/19 09:03:12;;;;;;;3.03;1.33;;;;;;;;;;4953886;29;20059;-67
2021/08/19 09:05:42;;;;;;;4.32;1.88;;;;;;;;;;4953145;28;20051;-66
2021/08/19 09:08:14;;;;;;;4.03;1.65;;;;;;;;;;4953594;29;20055;-66
2021/08/19 09:10:43;;;;;;;1.40;1.23;;;;;;;;;;4953916;29;20074;-67
2021/08/19 09:13:15;;;;;;;3.38;1.63;;;;;;;;;;4953568;28;20489;-65
2021/08/19 09:15:44;;;;;;;2.30;1.40;;;;;;;;;;4952874;29;20043;-66
2021/08/19 09:18:13;;;;;;;3.45;1.25;;;;;;;;;;4953495;29;20106;-66
2021/08/19 09:20:42;;;;;;;1.88;1.35;;;;;;;;;;4953540;29;20043;-66
2021/08/19 09:23:11;;;;;;;2.47;1.17;;;;;;;;;;4953427;29;20051;-68
2021/08/19 09:25:40;;;;;;;1.55;0.93;;;;;;;;;;4953387;28;20085;-67
2021/08/19 09:28:09;;;;;;;2.88;0.93;;;;;;;;;;4953015;28;20055;-67
2021/08/19 09:30:41;;;;;;;1.45;1.08;;;;;;;;;;4953440;29;20089;-66
2021/08/19 09:33:10;;;;;;;2.28;1.10;;;;;;;;;;4953346;29;20054;-66
2021/08/19 09:35:39;;;;;;;1.75;1.08;;;;;;;;;;4953001;29;20094;-67
2021/08/19 09:38:08;;;;;;;1.98;1.15;;;;;;;;;;4963086;28;20047;-66
2021/08/19 09:40:37;;;;;;;2.42;0.90;;;;;;;;;;4972479;28;20133;-66
2021/08/19 09:43:05;;;;;;;1.40;0.93;;;;;;;;;;4972635;28;20105;-67
2021/08/19 09:45:43;;;;;;;1.92;1.20;;;;;;;;;;4966024;28;20059;-68
2021/08/19 09:48:14;;;;;;;5.20;1.10;;;;;;;;;;4953116;29;20057;-66
2021/08/19 09:50:43;;;;;;;1.73;0.93;;;;;;;;;;4952602;29;20488;-67
2021/08/19 09:53:21;;;;;;;2.45;1.20;;;;;;;;;;4953425;29;20460;-66
2021/08/19 09:55:49;;;;;;;1.70;0.98;;;;;;;;;;4952746;28;20054;-67
2021/08/19 09:58:35;;;;;;;3.30;1.00;;;;;;;;;;4953010;29;20051;-67
2021/08/19 10:01:03;;;;;;;2.03;0.73;;;;;;;;;;4953216;29;20051;-68
2021/08/19 10:03:34;;;;;;;1.73;1.13;;;;;;;;;;4952774;29;20138;-67
2021/08/19 10:06:03;;;;;;;1.35;0.95;;;;;;;;;;4952955;29;20057;-66
2021/08/19 10:08:32;;;;;;;2.65;0.90;;;;;;;;;;4954583;28;20063;-67
2021/08/19 10:11:01;;;;;;;1.88;1.00;;;;;;;;;;4972458;28;20058;-67
2021/08/19 10:13:29;;;;;;;2.45;0.98;;;;;;;;;;4971681;28;20093;-66
2021/08/19 10:16:00;;;;;;;1.27;0.80;;;;;;;;;;4971992;28;20086;-67
2021/08/19 10:18:29;;;;;;;1.38;0.80;;;;;;;;;;4971947;28;20050;-68
2021/08/19 10:21:00;;;;;;;1.38;0.90;;;;;;;;;;4955191;28;20137;-67
2021/08/19 10:23:29;;;;;;;1.35;0.80;;;;;;;;;;4952655;29;20129;-68
2021/08/19 10:26:11;;;;;;;2.35;1.38;;;;;;;;;;4952448;29;20087;-67
2021/08/19 10:28:47;;;;;;;3.08;0.80;;;;;;;;;;4952683;29;20480;-66
2021/08/19 10:31:35;;;;;;;1.17;0.88;;;;;;;;;;4952824;29;20101;-66
2021/08/19 10:34:03;;;;;;;1.95;0.82;;;;;;;;;;4952030;29;20047;-67
2021/08/19 10:36:49;;;;;;;1.40;0.70;;;;;;;;;;4952482;29;20047;-67
2021/08/19 10:39:31;;;;;;;3.53;1.10;;;;;;;;;;4952796;28;20058;-66
2021/08/19 10:42:00;;;;;;;2.60;1.00;;;;;;;;;;4956400;29;20051;-66
2021/08/19 10:44:31;;;;;;;1.70;0.95;;;;;;;;;;4956103;29;20074;-67
2021/08/19 10:47:00;;;;;;;5.90;1.40;;;;;;;;;;4956083;29;20142;-67
2021/08/19 10:49:32;;;;;;;1.55;1.08;;;;;;;;;;4956415;29;20054;-67
2021/08/19 10:52:15;;;;;;;3.10;1.20;;;;;;;;;;4956365;29;20047;-66
2021/08/19 10:54:47;;;;;;;2.17;1.08;;;;;;;;;;4954834;29;20046;-66
2021/08/19 10:57:30;;;;;;;2.30;1.00;;;;;;;;;;4956002;28;20052;-67
2021/08/19 10:59:59;;;;;;;1.92;1.20;;;;;;;;;;4974394;28;20126;-65
2021/08/19 11:02:40;;;;;;;1.58;1.05;;;;;;;;;;4970459;28;20047;-69
2021/08/19 11:05:09;;;;;;;1.73;1.20;;;;;;;;;;4955953;28;20142;-66
2021/08/19 11:07:47;;;;;;;3.63;1.20;;;;;;;;;;4955521;28;20381;-67
2021/08/19 11:10:27;;;;;;;3.67;1.20;;;;;;;;;;4956030;28;20122;-66
2021/08/19 11:13:01;;;;;;;2.65;1.20;;;;;;;;;;4955934;29;20050;-66
2021/08/19 11:15:30;;;;;;;2.63;1.05;;;;;;;;;;4955089;28;20047;-67
2021/08/19 11:17:59;;;;;;;1.98;1.15;;;;;;;;;;4956147;29;20492;-66
2021/08/19 11:20:29;;;;;;;1.00;0.80;;;;;;;;;;4955621;29;20555;-66
2021/08/19 11:23:05;;;;;;;3.50;0.90;;;;;;;;;;4955287;29;20444;-67
2021/08/19 11:25:35;;;;;;;3.25;1.25;;;;;;;;;;4955522;28;20059;-68
2021/08/19 11:28:14;;;;;;;2.00;1.10;;;;;;;;;;4955856;29;20129;-68
2021/08/19 11:30:44;;;;;;;2.35;1.02;;;;;;;;;;4955299;29;20564;-67
2021/08/19 11:33:16;;;;;;;1.23;1.10;;;;;;;;;;4955342;29;20141;-67
2021/08/19 11:35:46;;;;;;;2.72;1.20;;;;;;;;;;4954923;29;20407;-67
2021/08/19 11:38:14;;;;;;;1.85;1.23;;;;;;;;;;4955424;29;20069;-67
2021/08/19 11:40:45;;;;;;;2.25;1.35;;;;;;;;;;4954938;29;20110;-65
2021/08/19 11:43:24;;;;;;;2.22;1.15;;;;;;;;;;4954874;29;20488;-66
2021/08/19 11:45:53;;;;;;;10.07;1.45;;;;;;;;;;4954286;29;20066;-68
2021/08/19 11:48:22;;;;;;;1.67;1.27;;;;;;;;;;4963861;28;20098;-67
2021/08/19 11:50:54;;;;;;;2.75;1.00;;;;;;;;;;4973951;28;20146;-66
2021/08/19 11:53:23;;;;;;;2.15;1.40;;;;;;;;;;4974417;28;20050;-66
2021/08/19 11:55:53;;;;;;;3.30;1.55;;;;;;;;;;4971098;28;20047;-67
2021/08/19 11:58:22;;;;;;;2.35;1.27;;;;;;;;;;4955144;29;20062;-66
2021/08/19 12:01:03;;;;;;;4.63;1.10;;;;;;;;;;4954922;29;20061;-68
2021/08/19 12:03:31;;;;;;;3.53;1.42;;;;;;;;;;4947921;28;20095;-66
2021/08/19 12:06:01;;;;;;;4.43;1.27;;;;;;;;;;4955334;28;20081;-67
2021/08/19 12:08:29;;;;;;;3.08;1.60;;;;;;;;;;4954826;28;20090;-66
2021/08/19 12:11:02;;;;;;;2.90;1.50;;;;;;;;;;4954611;29;20465;-66
2021/08/19 12:13:32;;;;;;;2.22;1.17;;;;;;;;;;4954025;29;20134;-65
2021/08/19 12:16:01;;;;;;;3.10;1.50;;;;;;;;;;4954857;29;20054;-66
2021/08/19 12:18:29;;;;;;;1.90;1.25;;;;;;;;;;4954554;29;20047;-68
2021/08/19 12:21:14;;;;;;;6.28;1.52;;;;;;;;;;4954704;29;20134;-66
2021/08/19 12:23:44;;;;;;;1.48;1.10;;;;;;;;;;4953662;29;20062;-67
2021/08/19 12:26:14;;;;;;;2.35;1.10;;;;;;;;;;4954476;29;20073;-68
2021/08/19 12:28:54;;;;;;;2.85;1.15;;;;;;;;;;4954835;29;20062;-66
2021/08/19 12:31:23;;;;;;;1.98;1.40;;;;;;;;;;4954014;29;20514;-67
2021/08/19 12:34:02;;;;;;;1.65;1.20;;;;;;;;;;4953839;29;20051;-66
2021/08/19 12:36:31;;;;;;;1.92;1.00;;;;;;;;;;4954808;29;20130;-67
2021/08/19 12:39:14;;;;;;;1.80;0.98;;;;;;;;;;4954819;29;20043;-68
2021/08/19 12:41:45;;;;;;;1.95;1.25;;;;;;;;;;4954568;29;20047;-67
2021/08/19 12:44:17;;;;;;;1.83;1.30;;;;;;;;;;4954291;29;20070;-67
2021/08/19 12:46:46;;;;;;;2.58;1.10;;;;;;;;;;4954239;29;20062;-67
2021/08/19 12:49:28;;;;;;;2.60;1.67;;;;;;;;;;4953980;29;20571;-66
2021/08/19 12:52:16;;;;;;;2.50;1.23;;;;;;;;;;4953961;29;20047;-65
2021/08/19 12:54:55;;;;;;;1.77;1.20;;;;;;;;;;4933953;29;20076;-66
2021/08/19 12:57:32;;;;;;;2.58;1.13;;;;;;;;;;4949322;28;20086;-67
2021/08/19 13:00:01;;;;;;;1.50;1.00;;;;;;;;;;4954207;29;20050;-66
2021/08/19 13:02:29;;;;;;;1.30;0.93;;;;;;;;;;4952857;28;20061;-66
2021/08/19 13:04:58;;;;;;;1.98;1.20;;;;;;;;;;4953518;28;20110;-66
2021/08/19 13:07:26;;;;;;;2.33;1.17;;;;;;;;;;4952974;28;20050;-66
2021/08/19 13:09:54;;;;;;;1.20;0.95;;;;;;;;;;4957900;28;20258;-66
2021/08/19 13:12:24;;;;;;;2.35;1.40;;;;;;;;;;4953742;29;20083;-66
2021/08/19 13:14:54;;;;;;;1.98;1.33;;;;;;;;;;4952454;29;20047;-65
2021/08/19 13:17:23;;;;;;;1.65;1.10;;;;;;;;;;4953385;29;20138;-66
2021/08/19 13:19:51;;;;;;;2.63;1.40;;;;;;;;;;4953350;29;20499;-69
2021/08/19 13:22:20;;;;;;;3.00;1.35;;;;;;;;;;4952579;29;20135;-66
2021/08/19 13:24:49;;;;;;;3.25;1.23;;;;;;;;;;4952753;28;20083;-66
2021/08/19 13:27:18;;;;;;;4.60;1.52;;;;;;;;;;4952987;29;20491;-67
2021/08/19 13:29:47;;;;;;;2.42;1.23;;;;;;;;;;4953514;29;20053;-65
2021/08/19 13:32:17;;;;;;;2.30;1.17;;;;;;;;;;4953561;29;20047;-66
2021/08/19 13:34:46;;;;;;;3.42;1.30;;;;;;;;;;4952393;29;20384;-67
2021/08/19 13:37:14;;;;;;;2.60;1.00;;;;;;;;;;4953256;29;20117;-65
2021/08/19 13:39:43;;;;;;;2.72;1.55;;;;;;;;;;4953325;29;20059;-67
2021/08/19 13:42:12;;;;;;;2.03;1.38;;;;;;;;;;4953171;29;20051;-66
2021/08/19 13:44:41;;;;;;;3.47;1.42;;;;;;;;;;4952401;29;20070;-67
2021/08/19 13:47:09;;;;;;;2.70;1.50;;;;;;;;;;4953435;29;20055;-67
2021/08/19 13:49:40;;;;;;;4.68;1.23;;;;;;;;;;4953014;29;20086;-67
2021/08/19 13:52:09;;;;;;;4.90;1.85;;;;;;;;;;4952617;29;20440;-67
2021/08/19 13:54:37;;;;;;;2.08;1.10;;;;;;;;;;4952298;29;20043;-66
2021/08/19 13:57:06;;;;;;;1.80;1.23;;;;;;;;;;4953188;28;20158;-67
2021/08/19 13:59:35;;;;;;;2.58;1.55;;;;;;;;;;4963464;28;20133;-67
2021/08/19 14:02:05;;;;;;;2.03;1.10;;;;;;;;;;4954247;28;20086;-69
2021/08/19 14:04:34;;;;;;;3.03;1.50;;;;;;;;;;4952643;28;20059;-66
2021/08/19 14:07:04;;;;;;;2.63;1.30;;;;;;;;;;4953216;28;20061;-66
2021/08/19 14:09:32;;;;;;;2.60;1.23;;;;;;;;;;4952963;28;20130;-66
2021/08/19 14:12:01;;;;;;;2.83;1.38;;;;;;;;;;4952186;29;20499;-67
2021/08/19 14:14:29;;;;;;;3.75;1.27;;;;;;;;;;4952400;28;20467;-67
2021/08/19 14:16:57;;;;;;;2.08;1.05;;;;;;;;;;4956756;29;20051;-67
2021/08/19 14:19:26;;;;;;;2.90;1.60;;;;;;;;;;4956392;29;20130;-65
2021/08/19 14:21:54;;;;;;;3.17;1.30;;;;;;;;;;4956572;29;20398;-66
2021/08/19 14:24:26;;;;;;;2.05;1.23;;;;;;;;;;4955817;29;20506;-65
2021/08/19 14:26:55;;;;;;;2.58;1.52;;;;;;;;;;4956319;29;20095;-69
2021/08/19 14:29:23;;;;;;;2.85;1.27;;;;;;;;;;4956294;29;20077;-67
2021/08/19 14:31:52;;;;;;;1.90;1.15;;;;;;;;;;4956282;29;20146;-66
2021/08/19 14:34:20;;;;;;;1.55;0.95;;;;;;;;;;4955902;29;20053;-66
2021/08/19 14:36:48;;;;;;;2.75;1.40;;;;;;;;;;4955917;29;20591;-66
2021/08/19 14:39:18;;;;;;;1.90;1.35;;;;;;;;;;4956482;29;20043;-66
2021/08/19 14:41:49;;;;;;;3.28;1.40;;;;;;;;;;4956399;29;20143;-68
2021/08/19 14:44:17;;;;;;;2.22;1.42;;;;;;;;;;4955517;29;20054;-65
2021/08/19 14:46:48;;;;;;;3.45;1.38;;;;;;;;;;4956012;29;20066;-66
2021/08/19 14:49:16;;;;;;;3.28;1.48;;;;;;;;;;4969695;28;20085;-67
2021/08/19 14:51:44;;;;;;;2.15;1.33;;;;;;;;;;4968137;28;20091;-69
2021/08/19 14:54:13;;;;;;;1.92;1.50;;;;;;;;;;4955785;29;20079;-66
2021/08/19 14:56:42;;;;;;;1.52;1.17;;;;;;;;;;4955750;28;20442;-67
2021/08/19 14:59:12;;;;;;;2.17;1.42;;;;;;;;;;4956086;29;20083;-67
2021/08/19 15:01:40;;;;;;;1.55;0.90;;;;;;;;;;4955615;29;20443;-67